Terminal Aerodrome Forecast
Issued by NWS

Home | Current Version | Previous Version | Graphics & Text | Print | Product List | Glossary Off
Versions: 1 2 3 4 5 6 7 8 9 10 11 12 13 14 15 16

000
FTUS43 KOAX 211906 AAA
TAFCDR
TAF AMD
KCDR 211906Z 2119/2218 13009KT P6SM SCT045 BKN070
      TEMPO 2119/2121 -RA
     FM220000 16011KT P6SM BKN060
     FM220700 22006KT P6SM SCT060=

USA.gov is the U.S. government's official web portal to all federal, state and local government web resources and services.